createdAt,value
2019-01-23T00:01:42.640Z,66.00
2019-01-23T00:03:44.305Z,66.90
2019-01-23T00:05:45.955Z,66.00
2019-01-23T00:07:47.914Z,66.80
2019-01-23T00:09:49.610Z,66.00
2019-01-23T00:11:51.286Z,68.40
2019-01-23T00:13:52.943Z,67.50
2019-01-23T00:15:54.602Z,66.10
2019-01-23T00:17:56.575Z,66.90
2019-01-23T00:19:58.588Z,67.00
2019-01-23T00:22:00.290Z,68.50
2019-01-23T00:24:02.049Z,67.10
2019-01-23T00:26:03.709Z,70.50
2019-01-23T00:28:05.369Z,69.70
2019-01-23T00:30:07.064Z,70.20
2019-01-23T00:32:08.714Z,70.80
2019-01-23T00:34:10.383Z,70.00
2019-01-23T00:36:12.364Z,69.50
2019-01-23T00:38:14.325Z,70.30
2019-01-23T00:40:15.997Z,70.90
2019-01-23T00:42:18.470Z,71.30
2019-01-23T00:44:20.124Z,71.30
2019-01-23T00:46:21.768Z,71.90
2019-01-23T00:48:23.426Z,71.70
2019-01-23T00:50:25.082Z,71.50
2019-01-23T00:52:26.770Z,69.60
2019-01-23T00:54:28.703Z,71.00
2019-01-23T00:56:30.352Z,71.80
2019-01-23T00:58:32.004Z,71.80
2019-01-23T01:00:34.033Z,71.30
2019-01-23T01:02:35.673Z,72.00
2019-01-23T01:04:37.333Z,70.70
2019-01-23T01:06:39.011Z,70.70
2019-01-23T01:08:40.657Z,71.70
2019-01-23T01:10:42.322Z,72.50
2019-01-23T01:12:43.973Z,71.40
2019-01-23T01:14:46.199Z,71.80
2019-01-23T01:16:47.868Z,71.40
2019-01-23T01:18:49.525Z,72.00
2019-01-23T01:20:51.193Z,72.20
2019-01-23T01:22:52.849Z,72.20
2019-01-23T01:24:54.509Z,72.50
2019-01-23T01:26:56.152Z,72.60
2019-01-23T01:28:58.103Z,73.40
2019-01-23T01:30:59.756Z,71.50
2019-01-23T01:33:01.410Z,73.10
2019-01-23T01:35:03.974Z,72.60
2019-01-23T01:37:05.620Z,73.50
2019-01-23T01:39:07.605Z,74.40
2019-01-23T01:41:09.269Z,74.40
2019-01-23T01:43:10.925Z,73.90
2019-01-23T01:45:13.252Z,74.30
2019-01-23T01:47:14.900Z,75.50
2019-01-23T01:49:16.544Z,75.20
2019-01-23T01:51:18.204Z,75.30
2019-01-23T01:53:19.853Z,77.20
2019-01-23T01:55:21.509Z,76.60
2019-01-23T01:57:23.444Z,75.20
2019-01-23T01:59:25.084Z,76.00
2019-01-23T02:01:26.753Z,75.50
2019-01-23T02:03:28.706Z,76.90
2019-01-23T02:05:30.385Z,75.20
2019-01-23T02:07:32.045Z,76.50
2019-01-23T02:09:35.621Z,76.00
2019-01-23T02:11:37.764Z,76.60
2019-01-23T02:13:39.429Z,77.60
2019-01-23T02:15:41.093Z,77.10
2019-01-23T02:17:42.753Z,77.40
2019-01-23T02:19:44.398Z,77.10
2019-01-23T02:21:46.051Z,76.20
2019-01-23T02:23:47.701Z,77.90
2019-01-23T02:25:49.366Z,78.60
2019-01-23T02:27:51.121Z,79.60
2019-01-23T02:29:52.784Z,79.60
2019-01-23T02:31:54.470Z,80.30
2019-01-23T02:33:56.174Z,80.50
2019-01-23T02:35:58.105Z,78.40
2019-01-23T02:37:59.751Z,79.50
2019-01-23T02:40:01.715Z,81.10
2019-01-23T02:42:03.669Z,81.10
2019-01-23T02:44:05.320Z,81.80
2019-01-23T02:46:06.989Z,81.60
2019-01-23T02:48:08.644Z,81.80
2019-01-23T02:50:10.341Z,81.10
2019-01-23T02:52:11.992Z,81.80
2019-01-23T02:54:13.646Z,81.50
2019-01-23T02:56:15.300Z,81.70
2019-01-23T02:58:16.950Z,82.00
2019-01-23T03:00:19.004Z,81.60
2019-01-23T03:02:20.645Z,81.70
2019-01-23T03:04:22.297Z,82.00
2019-01-23T03:06:23.968Z,82.00
2019-01-23T03:08:25.625Z,82.00
2019-01-23T03:10:27.293Z,82.20
2019-01-23T03:12:28.945Z,83.20
2019-01-23T03:14:30.588Z,81.80
2019-01-23T03:16:32.239Z,81.90
2019-01-23T03:18:33.893Z,81.60
2019-01-23T03:20:35.549Z,81.50
2019-01-23T03:22:37.208Z,81.70
2019-01-23T03:24:38.847Z,81.50
2019-01-23T03:26:40.517Z,81.50
2019-01-23T03:28:42.169Z,82.30
2019-01-23T03:30:43.856Z,82.10
2019-01-23T03:32:45.507Z,82.60
2019-01-23T03:34:47.161Z,82.10
2019-01-23T03:36:49.076Z,82.40
2019-01-23T03:38:50.746Z,82.70
2019-01-23T03:40:52.405Z,83.10
2019-01-23T03:42:54.333Z,82.30
2019-01-23T03:44:56.291Z,83.50
2019-01-23T03:46:57.954Z,83.90
2019-01-23T03:48:59.600Z,83.30
2019-01-23T03:51:01.257Z,82.90
2019-01-23T03:53:02.922Z,82.80
2019-01-23T03:55:05.003Z,83.00
2019-01-23T03:57:06.932Z,82.90
2019-01-23T03:59:08.582Z,83.00
2019-01-23T04:01:10.215Z,82.70
2019-01-23T04:03:11.876Z,82.90
2019-01-23T04:05:13.533Z,82.30
2019-01-23T04:07:15.196Z,81.90
2019-01-23T04:09:16.841Z,82.50
2019-01-23T04:11:18.498Z,81.80
2019-01-23T04:13:20.173Z,82.40
2019-01-23T04:15:21.826Z,81.60
2019-01-23T04:17:23.486Z,81.80
2019-01-23T04:19:25.134Z,82.20
2019-01-23T04:21:26.790Z,82.50
2019-01-23T04:23:28.445Z,82.00
2019-01-23T04:25:30.496Z,81.70
2019-01-23T04:27:32.166Z,81.60
2019-01-23T04:29:39.563Z,81.80
2019-01-23T04:31:37.371Z,82.50
2019-01-23T04:33:39.028Z,82.00
2019-01-23T04:35:40.956Z,82.40
2019-01-23T04:37:42.949Z,81.70
2019-01-23T04:39:44.664Z,81.70
2019-01-23T04:41:46.313Z,82.20
2019-01-23T04:43:47.989Z,83.00
2019-01-23T04:45:49.641Z,83.10
2019-01-23T04:47:51.309Z,83.50
2019-01-23T04:49:52.971Z,83.50
2019-01-23T04:52:09.526Z,83.40
2019-01-23T04:54:16.410Z,83.70
2019-01-23T04:56:18.067Z,83.70
2019-01-23T04:58:19.707Z,83.10
2019-01-23T05:00:23.498Z,83.90
2019-01-23T05:02:25.470Z,82.70
2019-01-23T05:04:27.128Z,82.80
2019-01-23T05:06:28.898Z,82.90
2019-01-23T05:08:30.555Z,83.20
2019-01-23T05:10:32.196Z,82.30
2019-01-23T05:12:34.142Z,82.50
2019-01-23T05:14:36.301Z,82.80
2019-01-23T05:16:38.563Z,83.40
2019-01-23T05:18:40.469Z,83.70
2019-01-23T05:20:42.123Z,83.60
2019-01-23T05:22:43.777Z,83.70
2019-01-23T05:24:45.441Z,83.40
2019-01-23T05:26:47.098Z,83.00
2019-01-23T05:28:48.765Z,83.10
2019-01-23T05:30:50.429Z,83.50
2019-01-23T05:32:52.416Z,83.20
2019-01-23T05:34:54.080Z,83.40
2019-01-23T05:36:55.724Z,84.40
2019-01-23T05:38:57.656Z,82.90
2019-01-23T05:40:59.305Z,82.90
2019-01-23T05:43:00.955Z,82.70
2019-01-23T05:45:02.999Z,82.60
2019-01-23T05:47:04.662Z,82.20
2019-01-23T05:49:06.640Z,82.00
2019-01-23T05:51:08.294Z,82.20
2019-01-23T05:53:09.941Z,82.60
2019-01-23T05:55:11.891Z,82.50
2019-01-23T05:57:13.541Z,82.30
2019-01-23T05:59:15.205Z,82.60
2019-01-23T06:01:17.369Z,82.20
2019-01-23T06:03:19.321Z,82.80
2019-01-23T06:05:21.287Z,82.20
2019-01-23T06:07:22.948Z,81.80
2019-01-23T06:09:24.611Z,81.80
2019-01-23T06:11:26.253Z,82.20
2019-01-23T06:13:27.905Z,82.20
2019-01-23T06:15:29.610Z,82.50
2019-01-23T06:17:31.313Z,81.40
2019-01-23T06:19:32.973Z,81.60
2019-01-23T06:21:34.624Z,81.70
2019-01-23T06:23:36.275Z,81.50
2019-01-23T06:25:37.951Z,81.20
2019-01-23T06:27:39.605Z,81.30
2019-01-23T06:29:41.264Z,82.00
2019-01-23T06:31:42.922Z,81.70
2019-01-23T06:33:44.589Z,82.30
2019-01-23T06:35:46.248Z,82.00
2019-01-23T06:37:47.903Z,82.00
2019-01-23T06:39:49.569Z,82.50
2019-01-23T06:41:51.245Z,82.50
2019-01-23T06:43:52.884Z,82.60
2019-01-23T06:45:54.548Z,82.70
2019-01-23T06:47:56.215Z,82.80
2019-01-23T06:49:58.906Z,82.60
2019-01-23T06:52:00.708Z,82.40
2019-01-23T06:54:02.362Z,82.70
2019-01-23T06:56:04.021Z,83.40
2019-01-23T06:58:05.668Z,82.80
2019-01-23T07:00:17.226Z,83.20
2019-01-23T07:02:19.217Z,82.40
2019-01-23T07:04:20.865Z,80.10
2019-01-23T07:06:22.539Z,82.40
2019-01-23T07:08:24.190Z,82.80
2019-01-23T07:10:25.849Z,81.20
2019-01-23T07:12:27.496Z,81.40
2019-01-23T07:14:29.172Z,81.90
2019-01-23T07:16:30.845Z,81.50
2019-01-23T07:18:32.822Z,80.90
2019-01-23T07:20:34.485Z,82.20
2019-01-23T07:22:36.416Z,82.20
2019-01-23T07:24:38.062Z,81.30
2019-01-23T07:26:39.722Z,82.30
2019-01-23T07:28:41.376Z,82.00
2019-01-23T07:30:43.048Z,82.20
2019-01-23T07:32:44.980Z,82.20
2019-01-23T07:34:46.625Z,82.40
2019-01-23T07:36:48.316Z,80.60
2019-01-23T07:38:49.961Z,79.60
2019-01-23T07:40:51.626Z,80.50
2019-01-23T07:42:53.281Z,79.70
2019-01-23T07:44:54.931Z,80.30
2019-01-23T07:46:56.594Z,79.50
2019-01-23T07:48:58.245Z,79.10
2019-01-23T07:50:59.909Z,78.50
2019-01-23T07:53:01.817Z,77.50
2019-01-23T07:55:05.116Z,76.50
2019-01-23T07:57:06.813Z,77.90
2019-01-23T07:59:09.887Z,77.10
2019-01-23T08:01:12.504Z,75.80
2019-01-23T08:03:14.161Z,76.50
2019-01-23T08:05:19.578Z,74.40
2019-01-23T08:07:21.524Z,74.90
2019-01-23T08:09:23.179Z,67.30
2019-01-23T08:11:24.845Z,70.20
2019-01-23T08:13:26.521Z,70.20
2019-01-23T08:15:30.345Z,69.50
2019-01-23T08:17:32.895Z,67.90
2019-01-23T08:19:35.057Z,68.90
2019-01-23T08:21:36.707Z,67.70
2019-01-23T08:23:38.673Z,66.60
2019-01-23T08:25:40.311Z,65.60
2019-01-23T08:27:42.040Z,65.80
2019-01-23T08:29:43.685Z,66.70
2019-01-23T08:31:45.349Z,63.30
2019-01-23T08:33:46.997Z,65.80
2019-01-23T08:35:48.642Z,65.70
2019-01-23T08:37:50.309Z,62.70
2019-01-23T08:39:51.958Z,63.80
2019-01-23T08:41:53.937Z,63.50
2019-01-23T08:43:55.884Z,64.70
2019-01-23T08:45:57.861Z,61.10
2019-01-23T08:47:59.508Z,61.20
2019-01-23T08:50:01.455Z,61.60
2019-01-23T08:52:03.116Z,61.10
2019-01-23T08:54:04.768Z,62.10
2019-01-23T08:56:06.429Z,61.20
2019-01-23T08:58:08.119Z,58.80
2019-01-23T09:00:10.124Z,61.20
2019-01-23T09:02:11.793Z,62.50
2019-01-23T09:04:13.440Z,59.60
2019-01-23T09:06:15.106Z,59.20
2019-01-23T09:08:16.869Z,58.40
2019-01-23T09:10:19.628Z,56.30
2019-01-23T09:12:21.294Z,56.60
2019-01-23T09:14:22.941Z,58.40
2019-01-23T09:16:24.595Z,58.50
2019-01-23T09:18:26.257Z,56.30
2019-01-23T09:20:28.209Z,54.00
2019-01-23T09:22:29.874Z,53.20
2019-01-23T09:24:31.525Z,52.50
2019-01-23T09:26:33.175Z,53.30
2019-01-23T09:28:34.840Z,53.60
2019-01-23T09:30:52.606Z,50.90
2019-01-23T09:33:20.148Z,51.90
2019-01-23T09:35:38.641Z,48.20
2019-01-23T09:38:25.539Z,42.30
2019-01-23T09:40:39.479Z,44.10
2019-01-23T09:43:29.765Z,42.30
2019-01-23T09:46:13.528Z,42.90
2019-01-23T09:49:12.776Z,37.30
2019-01-23T09:51:51.369Z,36.40
2019-01-23T09:54:13.698Z,33.20
2019-01-23T09:56:16.851Z,31.80
2019-01-23T09:58:18.501Z,30.30
2019-01-23T10:00:23.034Z,28.30
2019-01-23T10:02:24.963Z,28.00
2019-01-23T10:04:26.616Z,26.80
2019-01-23T10:06:28.272Z,30.00
2019-01-23T10:08:29.929Z,34.90
2019-01-23T10:10:31.585Z,29.60
2019-01-23T10:12:33.228Z,32.90
2019-01-23T10:14:34.879Z,30.00
2019-01-23T10:16:36.533Z,32.20
2019-01-23T10:18:38.197Z,31.50
2019-01-23T10:20:39.841Z,30.60
2019-01-23T10:22:41.494Z,31.20
2019-01-23T10:24:43.135Z,30.00
2019-01-23T10:26:44.825Z,29.00
2019-01-23T10:28:46.472Z,28.10
2019-01-23T10:30:48.115Z,28.40
2019-01-23T10:32:49.765Z,28.20
2019-01-23T10:34:51.425Z,23.50
2019-01-23T10:36:53.095Z,24.90
2019-01-23T10:38:54.754Z,23.90
2019-01-23T10:40:56.401Z,24.10
2019-01-23T10:42:58.057Z,26.70
2019-01-23T10:44:59.816Z,27.00
2019-01-23T10:47:01.507Z,25.30
2019-01-23T10:49:03.168Z,26.40
2019-01-23T10:51:04.813Z,28.20
2019-01-23T10:53:06.555Z,27.70
2019-01-23T10:55:08.216Z,26.70
2019-01-23T10:57:09.869Z,25.60
2019-01-23T10:59:11.523Z,27.20
2019-01-23T11:01:13.435Z,27.30
2019-01-23T11:03:15.746Z,26.10
2019-01-23T11:05:18.853Z,30.20
2019-01-23T11:07:20.517Z,31.80
2019-01-23T11:09:22.287Z,32.00
2019-01-23T11:11:23.996Z,35.20
2019-01-23T11:13:25.693Z,34.30
2019-01-23T11:15:27.339Z,34.30
2019-01-23T11:17:28.985Z,37.40
2019-01-23T11:19:30.895Z,37.70
2019-01-23T11:21:32.553Z,38.30
2019-01-23T11:23:34.209Z,36.00
2019-01-23T11:25:35.873Z,37.40
2019-01-23T11:27:37.537Z,35.10
2019-01-23T11:29:39.202Z,35.90
2019-01-23T11:31:40.877Z,36.20
2019-01-23T11:33:42.516Z,35.60
2019-01-23T11:35:44.173Z,34.50
2019-01-23T11:37:45.831Z,35.50
2019-01-23T11:39:47.492Z,36.30
2019-01-23T11:41:49.140Z,37.20
2019-01-23T11:43:51.232Z,38.50
2019-01-23T11:45:52.892Z,33.30
2019-01-23T11:47:54.585Z,39.60
2019-01-23T11:49:56.244Z,36.00
2019-01-23T11:51:57.899Z,37.20
2019-01-23T11:53:59.568Z,36.00
2019-01-23T11:56:01.233Z,37.00
2019-01-23T11:58:03.205Z,38.70
2019-01-23T12:00:08.760Z,37.70
2019-01-23T12:02:10.617Z,36.50
2019-01-23T12:04:12.558Z,34.20
2019-01-23T12:06:14.229Z,37.50
2019-01-23T12:08:15.872Z,36.10
2019-01-23T12:10:19.357Z,32.10
2019-01-23T12:12:21.271Z,40.30
2019-01-23T12:14:23.066Z,38.60
2019-01-23T12:16:24.716Z,39.50
2019-01-23T12:18:26.381Z,39.60
2019-01-23T12:20:28.050Z,34.80
2019-01-23T12:22:29.689Z,38.90
2019-01-23T12:24:31.353Z,35.10
2019-01-23T12:26:33.349Z,36.90
2019-01-23T12:28:35.007Z,37.80
2019-01-23T12:30:36.661Z,32.40
2019-01-23T12:32:38.300Z,30.50
2019-01-23T12:34:39.944Z,35.20
2019-01-23T12:36:41.601Z,30.60
2019-01-23T12:38:43.253Z,32.20
2019-01-23T12:40:45.147Z,29.00
2019-01-23T12:42:46.809Z,29.10
2019-01-23T12:44:48.464Z,29.20
2019-01-23T12:46:50.125Z,30.80
2019-01-23T12:48:51.776Z,30.80
2019-01-23T12:50:53.437Z,30.20
2019-01-23T12:52:55.370Z,30.30
2019-01-23T12:54:57.020Z,31.50
2019-01-23T12:56:58.671Z,31.80
2019-01-23T12:59:00.325Z,34.40
2019-01-23T13:01:01.996Z,32.40
2019-01-23T13:03:03.757Z,28.70
2019-01-23T13:05:07.541Z,31.00
2019-01-23T13:07:09.195Z,32.00
2019-01-23T13:09:10.953Z,32.30
2019-01-23T13:11:12.605Z,31.10
2019-01-23T13:13:14.540Z,31.00
2019-01-23T13:15:18.355Z,29.60
2019-01-23T13:17:20.020Z,28.40
2019-01-23T13:19:21.681Z,26.60
2019-01-23T13:21:23.346Z,23.40
2019-01-23T13:23:25.005Z,21.80
2019-01-23T13:25:27.674Z,21.20
2019-01-23T13:27:29.397Z,22.90
2019-01-23T13:29:31.341Z,23.10
2019-01-23T13:31:33.024Z,22.60
2019-01-23T13:33:34.709Z,22.10
2019-01-23T13:35:37.989Z,24.40
2019-01-23T13:37:39.653Z,26.10
2019-01-23T13:39:41.305Z,24.10
2019-01-23T13:41:42.968Z,22.30
2019-01-23T13:43:44.621Z,21.30
2019-01-23T13:45:46.281Z,21.90
2019-01-23T13:47:48.246Z,22.10
2019-01-23T13:49:49.896Z,21.40
2019-01-23T13:51:51.557Z,21.20
2019-01-23T13:53:53.213Z,19.50
2019-01-23T13:55:54.874Z,21.00
2019-01-23T13:57:56.529Z,21.80
2019-01-23T13:59:58.176Z,22.50
2019-01-23T14:02:00.116Z,21.00
2019-01-23T14:04:01.782Z,19.70
2019-01-23T14:06:03.463Z,21.00
2019-01-23T14:08:06.025Z,22.80
2019-01-23T14:10:09.817Z,24.50
2019-01-23T14:12:11.757Z,23.40
2019-01-23T14:14:13.403Z,21.10
2019-01-23T14:16:15.057Z,23.20
2019-01-23T14:18:16.711Z,24.10
2019-01-23T14:20:18.369Z,25.00
2019-01-23T14:22:20.053Z,26.00
2019-01-23T14:24:21.689Z,25.40
2019-01-23T14:26:23.625Z,26.30
2019-01-23T14:28:25.303Z,26.10
2019-01-23T14:30:29.405Z,26.80
2019-01-23T14:32:31.073Z,28.00
2019-01-23T14:34:32.729Z,29.30
2019-01-23T14:36:34.416Z,29.30
2019-01-23T14:38:36.169Z,29.80
2019-01-23T14:40:37.925Z,30.90
2019-01-23T14:42:39.588Z,32.30
2019-01-23T14:44:41.545Z,33.80
2019-01-23T14:46:43.197Z,34.80
2019-01-23T14:48:44.856Z,35.40
2019-01-23T14:50:46.513Z,36.00
2019-01-23T14:52:48.205Z,36.20
2019-01-23T14:54:49.853Z,38.00
2019-01-23T14:56:51.878Z,38.90
2019-01-23T14:58:53.532Z,38.80
2019-01-23T15:00:55.201Z,38.10
2019-01-23T15:02:56.853Z,39.60
2019-01-23T15:04:58.509Z,41.60
2019-01-23T15:07:00.445Z,42.10
2019-01-23T15:09:04.403Z,42.50
2019-01-23T15:11:06.058Z,42.70
2019-01-23T15:13:07.749Z,43.80
2019-01-23T15:15:09.412Z,44.30
2019-01-23T15:17:11.913Z,45.90
2019-01-23T15:19:13.580Z,47.50
2019-01-23T15:21:15.232Z,47.30
2019-01-23T15:23:16.894Z,47.70
2019-01-23T15:25:18.553Z,48.50
2019-01-23T15:27:20.222Z,49.00
2019-01-23T15:29:21.886Z,49.10
2019-01-23T15:31:23.527Z,50.20
2019-01-23T15:33:25.488Z,50.00
2019-01-23T15:35:27.144Z,49.20
2019-01-23T15:37:29.036Z,50.50
2019-01-23T15:39:30.681Z,51.10
2019-01-23T15:41:32.333Z,51.20
2019-01-23T15:43:34.265Z,51.10
2019-01-23T15:45:35.921Z,52.00
2019-01-23T15:47:37.572Z,52.10
2019-01-23T15:49:39.225Z,51.30
2019-01-23T15:51:40.868Z,50.60
2019-01-23T15:53:42.541Z,50.90
2019-01-23T15:55:44.246Z,50.40
2019-01-23T15:57:45.897Z,51.30
2019-01-23T15:59:47.558Z,51.10
2019-01-23T16:01:49.207Z,50.20
2019-01-23T16:03:50.955Z,52.60
2019-01-23T16:05:52.624Z,51.90
2019-01-23T16:07:54.593Z,51.70
2019-01-23T16:09:56.258Z,52.30
2019-01-23T16:11:57.914Z,53.50
2019-01-23T16:13:59.568Z,52.00
2019-01-23T16:16:01.516Z,53.70
2019-01-23T16:18:03.161Z,53.60
2019-01-23T16:20:05.317Z,53.50
2019-01-23T16:22:06.969Z,52.10
2019-01-23T16:24:08.645Z,54.50
2019-01-23T16:26:10.289Z,54.20
2019-01-23T16:28:11.943Z,54.10
2019-01-23T16:30:25.457Z,54.60
2019-01-23T16:32:31.431Z,53.50
2019-01-23T16:34:30.680Z,54.10
2019-01-23T16:36:32.333Z,54.90
2019-01-23T16:38:33.985Z,54.00
2019-01-23T16:40:35.649Z,54.70
2019-01-23T16:42:37.786Z,54.10
2019-01-23T16:44:39.857Z,52.30
2019-01-23T16:46:41.574Z,53.70
2019-01-23T16:48:43.271Z,53.30
2019-01-23T16:50:44.937Z,54.00
2019-01-23T16:52:46.590Z,54.30
2019-01-23T16:54:48.524Z,53.10
2019-01-23T16:56:50.181Z,53.40
2019-01-23T16:58:51.882Z,52.90
2019-01-23T17:00:53.554Z,53.30
2019-01-23T17:05:24.058Z,53.40
2019-01-23T17:07:26.023Z,53.40
2019-01-23T17:09:27.789Z,53.50
2019-01-23T17:11:29.537Z,53.40
2019-01-23T17:13:31.180Z,52.70
2019-01-23T17:15:32.832Z,52.90
2019-01-23T17:17:34.484Z,52.40
2019-01-23T17:19:36.141Z,52.90
2019-01-23T17:21:37.793Z,53.40
2019-01-23T17:23:39.681Z,50.60
2019-01-23T17:25:41.340Z,53.30
2019-01-23T17:27:43.031Z,53.90
2019-01-23T17:29:45.240Z,52.20
2019-01-23T17:31:46.897Z,52.20
2019-01-23T17:33:51.748Z,52.80
2019-01-23T17:35:53.489Z,51.60
2019-01-23T17:37:55.797Z,53.10
2019-01-23T17:39:57.806Z,52.00
2019-01-23T17:41:59.829Z,53.60
2019-01-23T17:44:01.848Z,52.30
2019-01-23T17:46:03.634Z,52.80
2019-01-23T17:48:07.660Z,52.30
2019-01-23T17:50:11.477Z,53.50
2019-01-23T17:52:13.119Z,53.30
2019-01-23T17:54:14.796Z,53.20
2019-01-23T17:56:16.589Z,54.40
2019-01-23T17:58:18.228Z,52.90
2019-01-23T18:00:23.623Z,52.60
2019-01-23T18:02:26.114Z,52.40
2019-01-23T18:04:27.792Z,53.40
2019-01-23T18:06:32.821Z,52.40
2019-01-23T18:08:35.161Z,49.40
2019-01-23T18:10:36.928Z,50.10
2019-01-23T18:12:38.590Z,50.50
2019-01-23T18:14:40.477Z,46.90
2019-01-23T18:16:42.348Z,48.60
2019-01-23T18:18:44.242Z,48.40
2019-01-23T18:20:46.025Z,47.80
2019-01-23T18:22:48.141Z,45.30
2019-01-23T18:24:49.797Z,47.10
2019-01-23T18:26:51.441Z,48.10
2019-01-23T18:28:53.093Z,47.40
2019-01-23T18:31:08.977Z,47.80
2019-01-23T18:33:12.075Z,47.80
2019-01-23T18:35:51.366Z,48.50
2019-01-23T18:38:17.335Z,47.70
2019-01-23T18:40:59.753Z,47.50
2019-01-23T18:43:37.621Z,47.70
2019-01-23T18:46:01.757Z,47.40
2019-01-23T18:48:25.470Z,49.00
2019-01-23T18:51:18.370Z,49.20
2019-01-23T18:53:20.324Z,47.60
2019-01-23T18:55:23.748Z,48.00
2019-01-23T18:57:26.540Z,46.30
2019-01-23T18:59:28.316Z,46.10
2019-01-23T19:01:29.977Z,48.70
2019-01-23T19:03:31.629Z,48.70
2019-01-23T19:05:33.282Z,49.50
2019-01-23T19:07:34.953Z,48.70
2019-01-23T19:09:36.609Z,48.40
2019-01-23T19:11:38.345Z,48.70
2019-01-23T19:13:39.991Z,48.40
2019-01-23T19:15:41.645Z,46.50
2019-01-23T19:17:43.372Z,46.40
2019-01-23T19:19:45.063Z,48.20
2019-01-23T19:21:47.057Z,49.20
2019-01-23T19:23:48.708Z,48.70
2019-01-23T19:25:51.216Z,48.70
2019-01-23T19:27:53.125Z,48.70
2019-01-23T19:29:54.776Z,48.80
2019-01-23T19:31:56.483Z,49.80
2019-01-23T19:33:58.146Z,48.70
2019-01-23T19:35:59.789Z,48.20
2019-01-23T19:38:01.490Z,48.40
2019-01-23T19:40:03.530Z,48.40
2019-01-23T19:42:05.200Z,47.00
2019-01-23T19:44:06.845Z,48.80
2019-01-23T19:46:08.493Z,48.70
2019-01-23T19:48:10.227Z,48.80
2019-01-23T19:50:12.557Z,50.50
2019-01-23T19:52:14.255Z,48.70
2019-01-23T19:54:15.989Z,47.40
2019-01-23T19:56:17.644Z,46.80
2019-01-23T19:58:19.305Z,48.70
2019-01-23T20:00:21.925Z,48.70
2019-01-23T20:02:23.589Z,48.70
2019-01-23T20:04:25.247Z,48.70
2019-01-23T20:06:26.913Z,48.70
2019-01-23T20:08:28.657Z,48.70
2019-01-23T20:10:30.301Z,48.70
2019-01-23T20:12:32.264Z,49.40
2019-01-23T20:14:33.916Z,48.80
2019-01-23T20:16:35.564Z,48.80
2019-01-23T20:18:37.237Z,50.10
2019-01-23T20:20:38.906Z,51.70
2019-01-23T20:22:40.672Z,49.90
2019-01-23T20:24:42.551Z,52.20
2019-01-23T20:26:44.271Z,50.70
2019-01-23T20:28:45.916Z,52.90
2019-01-23T20:30:47.565Z,50.40
2019-01-23T20:32:49.989Z,48.60
2019-01-23T20:34:52.230Z,50.10
2019-01-23T20:36:53.876Z,48.60
2019-01-23T20:38:55.537Z,48.60
2019-01-23T20:40:57.239Z,49.00
2019-01-23T20:43:01.345Z,49.80
2019-01-23T20:45:04.968Z,48.70
2019-01-23T20:47:06.620Z,48.70
2019-01-23T20:49:08.306Z,48.80
2019-01-23T20:51:09.939Z,46.90
2019-01-23T20:53:11.586Z,46.20
2019-01-23T20:55:13.228Z,46.90
2019-01-23T20:57:14.902Z,46.80
2019-01-23T20:59:16.586Z,47.00
2019-01-23T21:01:18.317Z,46.10
2019-01-23T21:03:19.985Z,49.80
2019-01-23T21:05:21.645Z,47.90
2019-01-23T21:07:23.447Z,48.80
2019-01-23T21:09:25.125Z,50.90
2019-01-23T21:11:26.784Z,48.80
2019-01-23T21:13:28.436Z,48.70
2019-01-23T21:15:31.131Z,48.30
2019-01-23T21:17:32.786Z,49.80
2019-01-23T21:19:34.436Z,50.90
2019-01-23T21:21:36.090Z,50.50
2019-01-23T21:23:37.748Z,50.10
2019-01-23T21:25:39.421Z,51.00
2019-01-23T21:27:41.365Z,49.70
2019-01-23T21:29:43.101Z,50.20
2019-01-23T21:31:44.744Z,49.30
2019-01-23T21:33:46.405Z,50.20
2019-01-23T21:35:48.132Z,51.00
2019-01-23T21:37:49.794Z,48.90
2019-01-23T21:39:52.620Z,48.90
2019-01-23T21:41:54.258Z,47.10
2019-01-23T21:43:55.906Z,47.20
2019-01-23T21:45:57.570Z,46.50
2019-01-23T21:47:59.213Z,48.50
2019-01-23T21:50:00.941Z,45.50
2019-01-23T21:52:02.640Z,46.30
2019-01-23T21:54:04.320Z,48.00
2019-01-23T21:56:05.976Z,46.20
2019-01-23T21:58:07.642Z,47.30
2019-01-23T22:00:13.109Z,44.50
2019-01-23T22:02:14.777Z,46.50
2019-01-23T22:04:16.461Z,45.70
2019-01-23T22:06:18.121Z,45.60
2019-01-23T22:08:19.776Z,46.00
2019-01-23T22:10:21.442Z,44.90
2019-01-23T22:12:23.085Z,45.10
2019-01-23T22:14:24.766Z,47.50
2019-01-23T22:16:26.437Z,48.50
2019-01-23T22:18:28.097Z,48.40
2019-01-23T22:20:29.757Z,47.40
2019-01-23T22:22:31.414Z,45.10
2019-01-23T22:24:33.060Z,45.20
2019-01-23T22:26:34.735Z,44.50
2019-01-23T22:28:36.417Z,45.50
2019-01-23T22:30:38.101Z,45.70
2019-01-23T22:32:39.761Z,46.90
2019-01-23T22:34:41.460Z,47.60
2019-01-23T22:36:43.133Z,46.00
2019-01-23T22:38:44.782Z,47.80
2019-01-23T22:40:46.439Z,48.40
2019-01-23T22:42:48.081Z,48.90
2019-01-23T22:44:49.843Z,50.70
2019-01-23T22:46:51.505Z,50.30
2019-01-23T22:48:53.213Z,49.50
2019-01-23T22:50:54.878Z,51.40
2019-01-23T22:52:56.524Z,52.40
2019-01-23T22:54:58.181Z,53.90
2019-01-23T22:57:00.137Z,56.60
2019-01-23T22:59:01.827Z,56.90
2019-01-23T23:01:20.365Z,56.70
2019-01-23T23:03:22.013Z,57.30
2019-01-23T23:05:24.025Z,56.10
2019-01-23T23:07:25.691Z,55.20
2019-01-23T23:09:28.169Z,54.80
2019-01-23T23:11:29.832Z,54.20
2019-01-23T23:13:31.471Z,56.40
2019-01-23T23:15:33.143Z,56.00
2019-01-23T23:17:34.798Z,56.70
2019-01-23T23:19:36.453Z,52.60
2019-01-23T23:21:38.112Z,57.40
2019-01-23T23:23:39.762Z,52.00
2019-01-23T23:25:41.468Z,54.80
2019-01-23T23:27:43.129Z,56.20
2019-01-23T23:29:44.808Z,52.90
2019-01-23T23:31:46.476Z,55.00
2019-01-23T23:33:48.163Z,57.00
2019-01-23T23:35:49.812Z,55.70
2019-01-23T23:37:51.468Z,57.00
2019-01-23T23:39:53.124Z,56.80
2019-01-23T23:41:54.809Z,55.20
2019-01-23T23:43:56.468Z,54.80
2019-01-23T23:45:58.130Z,56.70
2019-01-23T23:48:00.052Z,57.80
2019-01-23T23:50:01.715Z,56.50
2019-01-23T23:52:03.664Z,58.90
2019-01-23T23:54:05.328Z,58.10
2019-01-23T23:56:07.007Z,59.90
2019-01-23T23:58:08.657Z,63.80
